sensor_id;sensor_type;location;lat;lon;timestamp;temperature;humidity
16785;DHT22;8509;52.178;5.404;2023-07-13T00:01:32;17.50;99.90
16785;DHT22;8509;52.178;5.404;2023-07-13T00:03:59;17.30;99.90
16785;DHT22;8509;52.178;5.404;2023-07-13T00:06:25;17.30;99.90
16785;DHT22;8509;52.178;5.404;2023-07-13T00:08:50;17.20;99.90
16785;DHT22;8509;52.178;5.404;2023-07-13T00:11:17;17.10;99.90
16785;DHT22;8509;52.178;5.404;2023-07-13T00:13:43;17.10;99.90
16785;DHT22;8509;52.178;5.404;2023-07-13T00:16:11;17.00;99.90
16785;DHT22;8509;52.178;5.404;2023-07-13T00:18:37;17.00;99.90
16785;DHT22;8509;52.178;5.404;2023-07-13T00:21:03;16.90;99.90
16785;DHT22;8509;52.178;5.404;2023-07-13T00:23:36;16.90;99.90
16785;DHT22;8509;52.178;5.404;2023-07-13T00:26:04;16.90;99.90
16785;DHT22;8509;52.178;5.404;2023-07-13T00:28:30;16.90;99.90
16785;DHT22;8509;52.178;5.404;2023-07-13T00:30:55;16.80;99.90
16785;DHT22;8509;52.178;5.404;2023-07-13T00:33:21;16.80;99.90
16785;DHT22;8509;52.178;5.404;2023-07-13T00:35:48;16.90;99.90
16785;DHT22;8509;52.178;5.404;2023-07-13T00:38:14;16.80;99.90
16785;DHT22;8509;52.178;5.404;2023-07-13T00:40:40;16.80;99.90
16785;DHT22;8509;52.178;5.404;2023-07-13T00:43:13;16.70;99.90
16785;DHT22;8509;52.178;5.404;2023-07-13T00:48:17;16.60;99.90
16785;DHT22;8509;52.178;5.404;2023-07-13T00:50:45;16.60;99.90
16785;DHT22;8509;52.178;5.404;2023-07-13T00:53:12;16.60;99.90
16785;DHT22;8509;52.178;5.404;2023-07-13T00:55:39;16.60;99.90
16785;DHT22;8509;52.178;5.404;2023-07-13T00:58:05;16.50;99.90
16785;DHT22;8509;52.178;5.404;2023-07-13T01:00:34;16.50;99.90
16785;DHT22;8509;52.178;5.404;2023-07-13T01:03:00;16.50;99.90
16785;DHT22;8509;52.178;5.404;2023-07-13T01:05:30;16.40;99.90
16785;DHT22;8509;52.178;5.404;2023-07-13T01:07:57;16.40;99.90
16785;DHT22;8509;52.178;5.404;2023-07-13T01:10:24;16.30;99.90
16785;DHT22;8509;52.178;5.404;2023-07-13T01:12:49;16.30;99.90
16785;DHT22;8509;52.178;5.404;2023-07-13T01:15:45;16.20;99.90
16785;DHT22;8509;52.178;5.404;2023-07-13T01:18:18;16.20;99.90
16785;DHT22;8509;52.178;5.404;2023-07-13T01:20:54;16.20;99.90
16785;DHT22;8509;52.178;5.404;2023-07-13T01:23:21;16.10;99.90
16785;DHT22;8509;52.178;5.404;2023-07-13T01:25:47;16.10;99.90
16785;DHT22;8509;52.178;5.404;2023-07-13T01:28:13;16.00;99.90
16785;DHT22;8509;52.178;5.404;2023-07-13T01:30:40;16.10;99.90
16785;DHT22;8509;52.178;5.404;2023-07-13T01:33:07;16.00;99.90
16785;DHT22;8509;52.178;5.404;2023-07-13T01:35:33;16.00;99.90
16785;DHT22;8509;52.178;5.404;2023-07-13T01:37:59;16.00;99.90
16785;DHT22;8509;52.178;5.404;2023-07-13T01:40:27;16.00;99.90
16785;DHT22;8509;52.178;5.404;2023-07-13T01:42:53;16.00;99.90
16785;DHT22;8509;52.178;5.404;2023-07-13T01:45:19;15.90;99.90
16785;DHT22;8509;52.178;5.404;2023-07-13T01:47:44;15.90;99.90
16785;DHT22;8509;52.178;5.404;2023-07-13T01:50:10;15.80;99.90
16785;DHT22;8509;52.178;5.404;2023-07-13T01:52:36;15.90;99.90
16785;DHT22;8509;52.178;5.404;2023-07-13T01:55:01;15.80;99.90
16785;DHT22;8509;52.178;5.404;2023-07-13T01:57:27;15.80;99.90
16785;DHT22;8509;52.178;5.404;2023-07-13T01:59:53;15.80;99.90
16785;DHT22;8509;52.178;5.404;2023-07-13T02:02:19;15.80;99.90
16785;DHT22;8509;52.178;5.404;2023-07-13T02:04:45;15.70;99.90
16785;DHT22;8509;52.178;5.404;2023-07-13T02:07:11;15.70;99.90
16785;DHT22;8509;52.178;5.404;2023-07-13T02:09:36;15.70;99.90
16785;DHT22;8509;52.178;5.404;2023-07-13T02:12:02;15.60;99.90
16785;DHT22;8509;52.178;5.404;2023-07-13T02:14:28;15.60;99.90
16785;DHT22;8509;52.178;5.404;2023-07-13T02:16:54;15.60;99.90
16785;DHT22;8509;52.178;5.404;2023-07-13T02:19:20;15.60;99.90
16785;DHT22;8509;52.178;5.404;2023-07-13T02:21:45;15.60;99.90
16785;DHT22;8509;52.178;5.404;2023-07-13T02:24:11;15.50;99.90
16785;DHT22;8509;52.178;5.404;2023-07-13T02:26:43;15.50;99.90
16785;DHT22;8509;52.178;5.404;2023-07-13T02:29:09;15.40;99.90
16785;DHT22;8509;52.178;5.404;2023-07-13T02:31:34;15.40;99.90
16785;DHT22;8509;52.178;5.404;2023-07-13T02:34:01;15.40;99.90
16785;DHT22;8509;52.178;5.404;2023-07-13T02:36:27;15.40;99.90
16785;DHT22;8509;52.178;5.404;2023-07-13T02:38:53;15.40;99.90
16785;DHT22;8509;52.178;5.404;2023-07-13T02:41:19;15.30;99.90
16785;DHT22;8509;52.178;5.404;2023-07-13T02:43:44;15.30;99.90
16785;DHT22;8509;52.178;5.404;2023-07-13T02:46:10;15.20;99.90
16785;DHT22;8509;52.178;5.404;2023-07-13T02:48:37;15.20;99.90
16785;DHT22;8509;52.178;5.404;2023-07-13T02:51:03;15.20;99.90
16785;DHT22;8509;52.178;5.404;2023-07-13T02:53:29;15.20;99.90
16785;DHT22;8509;52.178;5.404;2023-07-13T02:55:55;15.20;99.90
16785;DHT22;8509;52.178;5.404;2023-07-13T02:58:21;15.20;99.90
16785;DHT22;8509;52.178;5.404;2023-07-13T03:00:47;15.20;99.90
16785;DHT22;8509;52.178;5.404;2023-07-13T03:03:15;15.20;99.90
16785;DHT22;8509;52.178;5.404;2023-07-13T03:05:43;15.10;99.90
16785;DHT22;8509;52.178;5.404;2023-07-13T03:08:11;15.10;99.90
16785;DHT22;8509;52.178;5.404;2023-07-13T03:10:37;15.10;99.90
16785;DHT22;8509;52.178;5.404;2023-07-13T03:13:03;15.10;99.90
16785;DHT22;8509;52.178;5.404;2023-07-13T03:15:29;15.10;99.90
16785;DHT22;8509;52.178;5.404;2023-07-13T03:17:54;15.10;99.90
16785;DHT22;8509;52.178;5.404;2023-07-13T03:20:20;15.10;99.90
16785;DHT22;8509;52.178;5.404;2023-07-13T03:22:46;15.20;99.90
16785;DHT22;8509;52.178;5.404;2023-07-13T03:25:11;15.10;99.90
16785;DHT22;8509;52.178;5.404;2023-07-13T03:27:37;15.10;99.90
16785;DHT22;8509;52.178;5.404;2023-07-13T03:30:05;15.10;99.90
16785;DHT22;8509;52.178;5.404;2023-07-13T03:32:31;15.10;99.90
16785;DHT22;8509;52.178;5.404;2023-07-13T03:34:56;15.10;99.90
16785;DHT22;8509;52.178;5.404;2023-07-13T03:37:22;15.10;99.90
16785;DHT22;8509;52.178;5.404;2023-07-13T03:39:47;15.10;99.90
16785;DHT22;8509;52.178;5.404;2023-07-13T03:42:14;15.10;99.90
16785;DHT22;8509;52.178;5.404;2023-07-13T03:44:40;15.10;99.90
16785;DHT22;8509;52.178;5.404;2023-07-13T03:47:06;15.10;99.90
16785;DHT22;8509;52.178;5.404;2023-07-13T03:49:34;15.10;99.90
16785;DHT22;8509;52.178;5.404;2023-07-13T03:52:00;15.10;99.90
16785;DHT22;8509;52.178;5.404;2023-07-13T03:54:26;15.10;99.90
16785;DHT22;8509;52.178;5.404;2023-07-13T03:56:51;15.10;99.90
16785;DHT22;8509;52.178;5.404;2023-07-13T03:59:17;15.10;99.90
16785;DHT22;8509;52.178;5.404;2023-07-13T04:01:44;15.10;99.90
16785;DHT22;8509;52.178;5.404;2023-07-13T04:04:09;15.20;99.90
16785;DHT22;8509;52.178;5.404;2023-07-13T04:06:35;15.20;99.90
16785;DHT22;8509;52.178;5.404;2023-07-13T04:09:02;15.40;99.90
16785;DHT22;8509;52.178;5.404;2023-07-13T04:11:32;15.40;99.90
16785;DHT22;8509;52.178;5.404;2023-07-13T04:13:58;15.40;99.90
16785;DHT22;8509;52.178;5.404;2023-07-13T04:16:25;15.50;99.90
16785;DHT22;8509;52.178;5.404;2023-07-13T04:18:51;15.60;99.90
16785;DHT22;8509;52.178;5.404;2023-07-13T04:21:21;15.70;99.90
16785;DHT22;8509;52.178;5.404;2023-07-13T04:23:47;15.70;99.90
16785;DHT22;8509;52.178;5.404;2023-07-13T04:26:12;15.80;99.90
16785;DHT22;8509;52.178;5.404;2023-07-13T04:28:38;16.00;99.90
16785;DHT22;8509;52.178;5.404;2023-07-13T04:31:04;16.40;99.90
16785;DHT22;8509;52.178;5.404;2023-07-13T04:33:30;16.90;99.90
16785;DHT22;8509;52.178;5.404;2023-07-13T04:35:56;17.30;99.90
16785;DHT22;8509;52.178;5.404;2023-07-13T04:38:27;17.60;99.90
16785;DHT22;8509;52.178;5.404;2023-07-13T04:41:01;18.00;99.90
16785;DHT22;8509;52.178;5.404;2023-07-13T04:43:28;18.30;99.90
16785;DHT22;8509;52.178;5.404;2023-07-13T04:45:54;18.50;99.90
16785;DHT22;8509;52.178;5.404;2023-07-13T04:48:21;18.70;99.90
16785;DHT22;8509;52.178;5.404;2023-07-13T04:50:47;18.80;99.90
16785;DHT22;8509;52.178;5.404;2023-07-13T04:53:13;18.80;99.90
16785;DHT22;8509;52.178;5.404;2023-07-13T04:55:39;19.00;99.90
16785;DHT22;8509;52.178;5.404;2023-07-13T04:58:06;19.00;99.90
16785;DHT22;8509;52.178;5.404;2023-07-13T05:00:32;18.90;99.90
16785;DHT22;8509;52.178;5.404;2023-07-13T05:02:58;18.70;99.90
16785;DHT22;8509;52.178;5.404;2023-07-13T05:05:25;18.60;99.90
16785;DHT22;8509;52.178;5.404;2023-07-13T05:07:52;18.40;99.90
16785;DHT22;8509;52.178;5.404;2023-07-13T05:10:17;18.40;99.90
16785;DHT22;8509;52.178;5.404;2023-07-13T05:12:43;18.70;99.90
16785;DHT22;8509;52.178;5.404;2023-07-13T05:15:09;18.70;99.90
16785;DHT22;8509;52.178;5.404;2023-07-13T05:17:35;18.90;99.90
16785;DHT22;8509;52.178;5.404;2023-07-13T05:20:01;19.20;99.90
16785;DHT22;8509;52.178;5.404;2023-07-13T05:22:26;19.60;99.90
16785;DHT22;8509;52.178;5.404;2023-07-13T05:24:52;20.10;99.90
16785;DHT22;8509;52.178;5.404;2023-07-13T05:27:18;20.10;99.90
16785;DHT22;8509;52.178;5.404;2023-07-13T05:29:43;20.00;99.90
16785;DHT22;8509;52.178;5.404;2023-07-13T05:32:09;20.10;99.90
16785;DHT22;8509;52.178;5.404;2023-07-13T05:34:35;20.10;99.90
16785;DHT22;8509;52.178;5.404;2023-07-13T05:37:00;20.20;99.90
16785;DHT22;8509;52.178;5.404;2023-07-13T05:39:26;20.40;99.90
16785;DHT22;8509;52.178;5.404;2023-07-13T05:41:53;20.80;99.90
16785;DHT22;8509;52.178;5.404;2023-07-13T05:44:18;21.30;99.90
16785;DHT22;8509;52.178;5.404;2023-07-13T05:46:45;21.40;99.90
16785;DHT22;8509;52.178;5.404;2023-07-13T05:49:10;21.80;99.90
16785;DHT22;8509;52.178;5.404;2023-07-13T05:51:36;21.90;99.90
16785;DHT22;8509;52.178;5.404;2023-07-13T05:54:02;21.70;99.90
16785;DHT22;8509;52.178;5.404;2023-07-13T05:56:27;21.50;99.90
16785;DHT22;8509;52.178;5.404;2023-07-13T05:58:53;21.20;99.90
16785;DHT22;8509;52.178;5.404;2023-07-13T06:01:19;21.10;99.90
16785;DHT22;8509;52.178;5.404;2023-07-13T06:03:46;21.40;99.90
16785;DHT22;8509;52.178;5.404;2023-07-13T06:06:12;21.40;99.90
16785;DHT22;8509;52.178;5.404;2023-07-13T06:08:38;21.30;99.90
16785;DHT22;8509;52.178;5.404;2023-07-13T06:11:12;21.50;99.90
16785;DHT22;8509;52.178;5.404;2023-07-13T06:13:39;21.60;99.90
16785;DHT22;8509;52.178;5.404;2023-07-13T06:16:05;21.80;99.90
16785;DHT22;8509;52.178;5.404;2023-07-13T06:18:32;21.80;99.90
16785;DHT22;8509;52.178;5.404;2023-07-13T06:20:58;21.60;99.90
16785;DHT22;8509;52.178;5.404;2023-07-13T06:23:24;21.30;99.90
16785;DHT22;8509;52.178;5.404;2023-07-13T06:25:50;21.20;99.90
16785;DHT22;8509;52.178;5.404;2023-07-13T06:28:15;21.00;99.90
16785;DHT22;8509;52.178;5.404;2023-07-13T06:30:41;20.80;99.90
16785;DHT22;8509;52.178;5.404;2023-07-13T06:33:07;20.40;99.90
16785;DHT22;8509;52.178;5.404;2023-07-13T06:35:33;20.20;99.90
16785;DHT22;8509;52.178;5.404;2023-07-13T06:37:59;20.10;99.90
16785;DHT22;8509;52.178;5.404;2023-07-13T06:40:25;20.10;99.90
16785;DHT22;8509;52.178;5.404;2023-07-13T06:42:50;20.20;99.90
16785;DHT22;8509;52.178;5.404;2023-07-13T06:45:16;20.40;99.90
16785;DHT22;8509;52.178;5.404;2023-07-13T06:47:42;20.70;99.90
16785;DHT22;8509;52.178;5.404;2023-07-13T06:50:07;21.40;99.90
16785;DHT22;8509;52.178;5.404;2023-07-13T06:52:33;22.20;99.90
16785;DHT22;8509;52.178;5.404;2023-07-13T06:54:59;22.70;99.90
16785;DHT22;8509;52.178;5.404;2023-07-13T06:57:25;23.00;99.90
16785;DHT22;8509;52.178;5.404;2023-07-13T06:59:51;23.30;99.90
16785;DHT22;8509;52.178;5.404;2023-07-13T07:02:17;23.40;99.90
16785;DHT22;8509;52.178;5.404;2023-07-13T07:04:43;23.60;99.90
16785;DHT22;8509;52.178;5.404;2023-07-13T07:07:08;24.00;99.90
16785;DHT22;8509;52.178;5.404;2023-07-13T07:09:34;24.30;99.90
16785;DHT22;8509;52.178;5.404;2023-07-13T07:11:59;24.30;99.90
16785;DHT22;8509;52.178;5.404;2023-07-13T07:14:25;24.50;99.90
16785;DHT22;8509;52.178;5.404;2023-07-13T07:16:51;24.10;99.90
16785;DHT22;8509;52.178;5.404;2023-07-13T07:19:16;23.50;99.90
16785;DHT22;8509;52.178;5.404;2023-07-13T07:21:42;22.90;99.90
16785;DHT22;8509;52.178;5.404;2023-07-13T07:24:08;22.70;99.90
16785;DHT22;8509;52.178;5.404;2023-07-13T07:26:34;22.60;99.90
16785;DHT22;8509;52.178;5.404;2023-07-13T07:28:59;22.40;99.90
16785;DHT22;8509;52.178;5.404;2023-07-13T07:31:25;22.00;99.90
16785;DHT22;8509;52.178;5.404;2023-07-13T07:33:51;21.30;99.90
16785;DHT22;8509;52.178;5.404;2023-07-13T07:36:16;20.90;99.90
16785;DHT22;8509;52.178;5.404;2023-07-13T07:38:43;20.80;99.90
16785;DHT22;8509;52.178;5.404;2023-07-13T07:41:09;20.70;99.90
16785;DHT22;8509;52.178;5.404;2023-07-13T07:43:36;20.60;99.90
16785;DHT22;8509;52.178;5.404;2023-07-13T07:46:02;20.50;99.90
16785;DHT22;8509;52.178;5.404;2023-07-13T07:48:28;20.60;99.90
16785;DHT22;8509;52.178;5.404;2023-07-13T07:50:53;20.60;99.90
16785;DHT22;8509;52.178;5.404;2023-07-13T07:53:19;20.70;99.90
16785;DHT22;8509;52.178;5.404;2023-07-13T07:55:45;20.90;99.90
16785;DHT22;8509;52.178;5.404;2023-07-13T07:58:10;21.50;99.90
16785;DHT22;8509;52.178;5.404;2023-07-13T08:00:36;22.10;99.90
16785;DHT22;8509;52.178;5.404;2023-07-13T08:03:02;22.50;99.90
16785;DHT22;8509;52.178;5.404;2023-07-13T08:05:28;22.70;99.90
16785;DHT22;8509;52.178;5.404;2023-07-13T08:07:54;23.00;99.90
16785;DHT22;8509;52.178;5.404;2023-07-13T08:10:20;24.00;99.90
16785;DHT22;8509;52.178;5.404;2023-07-13T08:12:46;24.60;99.90
16785;DHT22;8509;52.178;5.404;2023-07-13T08:15:14;25.10;99.90
16785;DHT22;8509;52.178;5.404;2023-07-13T08:17:40;25.30;99.90
16785;DHT22;8509;52.178;5.404;2023-07-13T08:20:06;25.00;99.90
16785;DHT22;8509;52.178;5.404;2023-07-13T08:22:32;24.90;99.90
16785;DHT22;8509;52.178;5.404;2023-07-13T08:24:59;25.10;99.90
16785;DHT22;8509;52.178;5.404;2023-07-13T08:27:26;25.40;99.90
16785;DHT22;8509;52.178;5.404;2023-07-13T08:29:52;26.30;99.90
16785;DHT22;8509;52.178;5.404;2023-07-13T08:32:20;26.80;99.90
16785;DHT22;8509;52.178;5.404;2023-07-13T08:34:46;26.70;99.90
16785;DHT22;8509;52.178;5.404;2023-07-13T08:37:12;26.60;99.90
16785;DHT22;8509;52.178;5.404;2023-07-13T08:39:38;27.00;99.90
16785;DHT22;8509;52.178;5.404;2023-07-13T08:42:26;27.50;99.90
16785;DHT22;8509;52.178;5.404;2023-07-13T08:45:20;27.00;99.90
16785;DHT22;8509;52.178;5.404;2023-07-13T08:50:24;25.20;99.90
16785;DHT22;8509;52.178;5.404;2023-07-13T08:52:52;24.30;99.90
16785;DHT22;8509;52.178;5.404;2023-07-13T08:55:21;23.30;99.90
16785;DHT22;8509;52.178;5.404;2023-07-13T08:57:54;22.30;99.90
16785;DHT22;8509;52.178;5.404;2023-07-13T09:00:23;21.60;99.90
16785;DHT22;8509;52.178;5.404;2023-07-13T09:02:57;21.20;99.90
16785;DHT22;8509;52.178;5.404;2023-07-13T09:05:30;21.10;99.90
16785;DHT22;8509;52.178;5.404;2023-07-13T09:11:23;20.80;99.90
16785;DHT22;8509;52.178;5.404;2023-07-13T09:16:48;21.40;99.90
16785;DHT22;8509;52.178;5.404;2023-07-13T09:19:21;21.50;99.90
16785;DHT22;8509;52.178;5.404;2023-07-13T09:21:49;21.40;99.90
16785;DHT22;8509;52.178;5.404;2023-07-13T09:24:41;21.30;99.90
16785;DHT22;8509;52.178;5.404;2023-07-13T09:27:14;21.70;99.90
16785;DHT22;8509;52.178;5.404;2023-07-13T09:29:47;22.10;99.90
16785;DHT22;8509;52.178;5.404;2023-07-13T09:32:15;22.30;99.90
16785;DHT22;8509;52.178;5.404;2023-07-13T09:34:43;22.10;99.90
16785;DHT22;8509;52.178;5.404;2023-07-13T09:37:15;21.70;99.90
16785;DHT22;8509;52.178;5.404;2023-07-13T09:39:42;21.70;99.90
16785;DHT22;8509;52.178;5.404;2023-07-13T09:44:56;22.20;99.90
16785;DHT22;8509;52.178;5.404;2023-07-13T09:47:30;22.10;99.90
16785;DHT22;8509;52.178;5.404;2023-07-13T09:50:02;21.80;99.90
16785;DHT22;8509;52.178;5.404;2023-07-13T09:57:48;20.40;99.90
16785;DHT22;8509;52.178;5.404;2023-07-13T10:00:21;20.20;99.90
16785;DHT22;8509;52.178;5.404;2023-07-13T10:03:03;19.90;99.90
16785;DHT22;8509;52.178;5.404;2023-07-13T10:05:41;19.90;99.90
16785;DHT22;8509;52.178;5.404;2023-07-13T10:08:21;20.20;99.90
16785;DHT22;8509;52.178;5.404;2023-07-13T10:10:52;20.70;99.90
16785;DHT22;8509;52.178;5.404;2023-07-13T10:13:33;21.50;99.90
16785;DHT22;8509;52.178;5.404;2023-07-13T10:16:00;22.00;99.90
16785;DHT22;8509;52.178;5.404;2023-07-13T10:18:28;22.30;99.90
16785;DHT22;8509;52.178;5.404;2023-07-13T10:24:06;22.90;99.90
16785;DHT22;8509;52.178;5.404;2023-07-13T10:26:45;23.10;99.90
16785;DHT22;8509;52.178;5.404;2023-07-13T10:29:14;23.20;99.90
16785;DHT22;8509;52.178;5.404;2023-07-13T10:31:41;23.20;99.90
16785;DHT22;8509;52.178;5.404;2023-07-13T10:34:11;23.40;99.90
16785;DHT22;8509;52.178;5.404;2023-07-13T10:36:47;23.70;99.90
16785;DHT22;8509;52.178;5.404;2023-07-13T10:39:21;24.00;99.90
16785;DHT22;8509;52.178;5.404;2023-07-13T10:41:55;23.70;99.90
16785;DHT22;8509;52.178;5.404;2023-07-13T10:44:29;23.70;99.90
16785;DHT22;8509;52.178;5.404;2023-07-13T10:47:15;23.40;99.90
16785;DHT22;8509;52.178;5.404;2023-07-13T10:49:43;23.10;99.90
16785;DHT22;8509;52.178;5.404;2023-07-13T10:52:42;23.10;99.90
16785;DHT22;8509;52.178;5.404;2023-07-13T10:55:32;23.20;99.90
16785;DHT22;8509;52.178;5.404;2023-07-13T10:58:02;23.60;99.90
16785;DHT22;8509;52.178;5.404;2023-07-13T11:00:32;23.70;99.90
16785;DHT22;8509;52.178;5.404;2023-07-13T11:03:00;23.60;99.90
16785;DHT22;8509;52.178;5.404;2023-07-13T11:05:32;23.60;99.90
16785;DHT22;8509;52.178;5.404;2023-07-13T11:10:56;23.00;99.90
16785;DHT22;8509;52.178;5.404;2023-07-13T11:16:46;22.10;99.90
16785;DHT22;8509;52.178;5.404;2023-07-13T11:24:51;22.70;99.90
16785;DHT22;8509;52.178;5.404;2023-07-13T11:27:45;23.20;99.90
16785;DHT22;8509;52.178;5.404;2023-07-13T11:30:24;23.70;99.90
16785;DHT22;8509;52.178;5.404;2023-07-13T11:38:28;23.40;99.90
16785;DHT22;8509;52.178;5.404;2023-07-13T11:40:55;23.10;99.90
16785;DHT22;8509;52.178;5.404;2023-07-13T11:43:22;22.90;99.90
16785;DHT22;8509;52.178;5.404;2023-07-13T11:45:49;22.80;99.90
16785;DHT22;8509;52.178;5.404;2023-07-13T11:48:23;22.80;99.90
16785;DHT22;8509;52.178;5.404;2023-07-13T11:51:16;23.10;99.90
16785;DHT22;8509;52.178;5.404;2023-07-13T11:53:46;23.20;99.90
16785;DHT22;8509;52.178;5.404;2023-07-13T11:56:13;23.40;99.90
16785;DHT22;8509;52.178;5.404;2023-07-13T11:58:39;23.40;99.90
16785;DHT22;8509;52.178;5.404;2023-07-13T12:01:05;23.20;99.90
16785;DHT22;8509;52.178;5.404;2023-07-13T12:03:32;23.20;99.90
16785;DHT22;8509;52.178;5.404;2023-07-13T12:06:04;23.20;99.90
16785;DHT22;8509;52.178;5.404;2023-07-13T12:08:39;23.10;99.90
16785;DHT22;8509;52.178;5.404;2023-07-13T12:11:09;22.90;99.90
16785;DHT22;8509;52.178;5.404;2023-07-13T12:13:39;22.80;99.90
16785;DHT22;8509;52.178;5.404;2023-07-13T12:16:22;22.80;99.90
16785;DHT22;8509;52.178;5.404;2023-07-13T12:18:52;22.70;99.90
16785;DHT22;8509;52.178;5.404;2023-07-13T12:21:19;22.80;99.90
16785;DHT22;8509;52.178;5.404;2023-07-13T12:23:48;22.80;99.90
16785;DHT22;8509;52.178;5.404;2023-07-13T12:26:15;22.90;99.90
16785;DHT22;8509;52.178;5.404;2023-07-13T12:28:52;23.10;99.90
16785;DHT22;8509;52.178;5.404;2023-07-13T12:31:34;23.40;99.90
16785;DHT22;8509;52.178;5.404;2023-07-13T12:34:14;23.90;99.90
16785;DHT22;8509;52.178;5.404;2023-07-13T12:37:02;24.00;99.90
16785;DHT22;8509;52.178;5.404;2023-07-13T12:39:57;24.00;99.90
16785;DHT22;8509;52.178;5.404;2023-07-13T12:42:24;23.80;99.90
16785;DHT22;8509;52.178;5.404;2023-07-13T12:45:01;24.10;99.90
16785;DHT22;8509;52.178;5.404;2023-07-13T12:47:29;24.20;99.90
16785;DHT22;8509;52.178;5.404;2023-07-13T12:49:58;24.00;99.90
16785;DHT22;8509;52.178;5.404;2023-07-13T12:52:34;24.10;99.90
16785;DHT22;8509;52.178;5.404;2023-07-13T12:55:20;24.10;99.90
16785;DHT22;8509;52.178;5.404;2023-07-13T12:57:54;23.80;99.90
16785;DHT22;8509;52.178;5.404;2023-07-13T13:00:30;23.60;99.90
16785;DHT22;8509;52.178;5.404;2023-07-13T13:03:02;23.50;99.90
16785;DHT22;8509;52.178;5.404;2023-07-13T13:05:29;23.40;99.90
16785;DHT22;8509;52.178;5.404;2023-07-13T13:07:55;23.20;99.90
16785;DHT22;8509;52.178;5.404;2023-07-13T13:10:21;23.20;99.90
16785;DHT22;8509;52.178;5.404;2023-07-13T13:12:47;23.10;99.90
16785;DHT22;8509;52.178;5.404;2023-07-13T13:15:13;23.20;99.90
16785;DHT22;8509;52.178;5.404;2023-07-13T13:17:39;23.40;99.90
16785;DHT22;8509;52.178;5.404;2023-07-13T13:20:20;23.70;99.90
16785;DHT22;8509;52.178;5.404;2023-07-13T13:22:46;23.60;99.90
16785;DHT22;8509;52.178;5.404;2023-07-13T13:25:12;23.30;99.90
16785;DHT22;8509;52.178;5.404;2023-07-13T13:27:40;23.20;99.90
16785;DHT22;8509;52.178;5.404;2023-07-13T13:30:14;23.10;99.90
16785;DHT22;8509;52.178;5.404;2023-07-13T13:32:42;23.10;99.90
16785;DHT22;8509;52.178;5.404;2023-07-13T13:35:19;23.20;99.90
16785;DHT22;8509;52.178;5.404;2023-07-13T13:37:46;23.30;99.90
16785;DHT22;8509;52.178;5.404;2023-07-13T13:40:19;23.40;99.90
16785;DHT22;8509;52.178;5.404;2023-07-13T13:42:45;23.50;99.90
16785;DHT22;8509;52.178;5.404;2023-07-13T13:45:11;23.40;99.90
16785;DHT22;8509;52.178;5.404;2023-07-13T13:47:43;23.50;99.90
16785;DHT22;8509;52.178;5.404;2023-07-13T13:50:13;23.50;99.90
16785;DHT22;8509;52.178;5.404;2023-07-13T13:52:40;23.50;99.90
16785;DHT22;8509;52.178;5.404;2023-07-13T13:55:17;23.40;99.90
16785;DHT22;8509;52.178;5.404;2023-07-13T13:57:47;23.30;99.90
16785;DHT22;8509;52.178;5.404;2023-07-13T14:00:14;23.30;99.90
16785;DHT22;8509;52.178;5.404;2023-07-13T14:02:45;23.30;99.90
16785;DHT22;8509;52.178;5.404;2023-07-13T14:05:18;23.20;99.90
16785;DHT22;8509;52.178;5.404;2023-07-13T14:07:45;23.20;99.90
16785;DHT22;8509;52.178;5.404;2023-07-13T14:10:14;23.20;99.90
16785;DHT22;8509;52.178;5.404;2023-07-13T14:12:47;23.20;99.90
16785;DHT22;8509;52.178;5.404;2023-07-13T14:15:28;23.20;99.90
16785;DHT22;8509;52.178;5.404;2023-07-13T14:17:56;23.20;99.90
16785;DHT22;8509;52.178;5.404;2023-07-13T14:20:24;23.10;99.90
16785;DHT22;8509;52.178;5.404;2023-07-13T14:22:51;23.00;99.90
16785;DHT22;8509;52.178;5.404;2023-07-13T14:25:18;23.00;99.90
16785;DHT22;8509;52.178;5.404;2023-07-13T14:27:45;23.00;99.90
16785;DHT22;8509;52.178;5.404;2023-07-13T14:30:15;22.90;99.90
16785;DHT22;8509;52.178;5.404;2023-07-13T14:32:42;22.80;99.90
16785;DHT22;8509;52.178;5.404;2023-07-13T14:35:14;22.90;99.90
16785;DHT22;8509;52.178;5.404;2023-07-13T14:37:40;22.90;99.90
16785;DHT22;8509;52.178;5.404;2023-07-13T14:40:17;22.90;99.90
16785;DHT22;8509;52.178;5.404;2023-07-13T14:42:44;23.00;99.90
16785;DHT22;8509;52.178;5.404;2023-07-13T14:45:18;22.90;99.90
16785;DHT22;8509;52.178;5.404;2023-07-13T14:47:44;22.90;99.90
16785;DHT22;8509;52.178;5.404;2023-07-13T14:50:19;22.80;99.90
16785;DHT22;8509;52.178;5.404;2023-07-13T14:52:46;22.70;99.90
16785;DHT22;8509;52.178;5.404;2023-07-13T14:55:21;22.70;99.90
16785;DHT22;8509;52.178;5.404;2023-07-13T14:57:48;22.70;99.90
16785;DHT22;8509;52.178;5.404;2023-07-13T15:00:15;22.70;99.90
16785;DHT22;8509;52.178;5.404;2023-07-13T15:02:52;22.80;99.90
16785;DHT22;8509;52.178;5.404;2023-07-13T15:05:24;22.70;99.90
16785;DHT22;8509;52.178;5.404;2023-07-13T15:07:56;22.60;99.90
16785;DHT22;8509;52.178;5.404;2023-07-13T15:10:24;22.40;99.90
16785;DHT22;8509;52.178;5.404;2023-07-13T15:12:56;22.30;99.90
16785;DHT22;8509;52.178;5.404;2023-07-13T15:15:22;22.20;99.90
16785;DHT22;8509;52.178;5.404;2023-07-13T15:17:47;22.30;99.90
16785;DHT22;8509;52.178;5.404;2023-07-13T15:22:48;22.60;99.90
16785;DHT22;8509;52.178;5.404;2023-07-13T15:25:20;22.70;99.90
16785;DHT22;8509;52.178;5.404;2023-07-13T15:27:46;22.60;99.90
16785;DHT22;8509;52.178;5.404;2023-07-13T15:30:13;22.40;99.90
16785;DHT22;8509;52.178;5.404;2023-07-13T15:32:40;22.40;99.90
16785;DHT22;8509;52.178;5.404;2023-07-13T15:35:13;22.50;99.90
16785;DHT22;8509;52.178;5.404;2023-07-13T15:37:40;22.50;99.90
16785;DHT22;8509;52.178;5.404;2023-07-13T15:40:06;22.40;99.90
16785;DHT22;8509;52.178;5.404;2023-07-13T15:42:32;22.40;99.90
16785;DHT22;8509;52.178;5.404;2023-07-13T15:44:58;22.40;99.90
16785;DHT22;8509;52.178;5.404;2023-07-13T15:47:24;22.40;99.90
16785;DHT22;8509;52.178;5.404;2023-07-13T15:49:49;22.40;99.90
16785;DHT22;8509;52.178;5.404;2023-07-13T15:52:21;22.30;99.90
16785;DHT22;8509;52.178;5.404;2023-07-13T15:54:48;22.20;99.90
16785;DHT22;8509;52.178;5.404;2023-07-13T15:57:14;22.30;99.90
16785;DHT22;8509;52.178;5.404;2023-07-13T15:59:40;22.30;99.90
16785;DHT22;8509;52.178;5.404;2023-07-13T16:02:16;22.20;99.90
16785;DHT22;8509;52.178;5.404;2023-07-13T16:04:43;22.20;99.90
16785;DHT22;8509;52.178;5.404;2023-07-13T16:07:10;22.10;99.90
16785;DHT22;8509;52.178;5.404;2023-07-13T16:09:37;22.10;99.90
16785;DHT22;8509;52.178;5.404;2023-07-13T16:12:14;22.10;99.90
16785;DHT22;8509;52.178;5.404;2023-07-13T16:14:41;22.00;99.90
16785;DHT22;8509;52.178;5.404;2023-07-13T16:17:13;22.00;99.90
16785;DHT22;8509;52.178;5.404;2023-07-13T16:19:40;22.00;99.90
16785;DHT22;8509;52.178;5.404;2023-07-13T16:22:14;22.10;99.90
16785;DHT22;8509;52.178;5.404;2023-07-13T16:24:42;22.10;99.90
16785;DHT22;8509;52.178;5.404;2023-07-13T16:27:11;22.00;99.90
16785;DHT22;8509;52.178;5.404;2023-07-13T16:29:38;21.90;99.90
16785;DHT22;8509;52.178;5.404;2023-07-13T16:32:06;21.80;99.90
16785;DHT22;8509;52.178;5.404;2023-07-13T16:34:35;21.80;99.90
16785;DHT22;8509;52.178;5.404;2023-07-13T16:37:03;21.70;99.90